Time;durP1;ratioP1;P1;durP2;ratioP2;P2;SDS_P1;SDS_P2;PMS_P1;PMS_P2;Temp;Humidity;BMP_temperature;BMP_pressure;BME280_temperature;BME280_humidity;BME280_pressure;Samples;Min_cycle;Max_cycle;Signal;HPM_P1;HPM_P2
2022/12/08 00:01:49;;;;;;;18.30;10.95;;;5.10;73.70;;;;;;2374003;56;21055;-52
2022/12/08 00:04:16;;;;;;;16.10;10.68;;;5.20;73.80;;;;;;2373949;56;21137;-46
2022/12/08 00:09:32;;;;;;;14.90;9.25;;;5.20;73.80;;;;;;2373990;56;20991;-47
2022/12/08 00:12:02;;;;;;;15.25;9.23;;;5.10;73.70;;;;;;2373917;56;21046;-48
2022/12/08 00:14:31;;;;;;;14.73;10.10;;;5.10;73.90;;;;;;2373944;56;21684;-49
2022/12/08 00:16:59;;;;;;;15.77;10.00;;;5.10;74.10;;;;;;2374481;56;21538;-49
2022/12/08 00:19:26;;;;;;;16.08;9.32;;;5.10;74.20;;;;;;2374710;56;21542;-49
2022/12/08 00:21:54;;;;;;;15.80;9.77;;;5.10;74.20;;;;;;2374342;56;21038;-53
2022/12/08 00:24:23;;;;;;;14.87;9.70;;;5.10;74.20;;;;;;2374037;56;21117;-50
2022/12/08 00:26:50;;;;;;;11.90;8.40;;;5.10;74.30;;;;;;2373821;56;21098;-49
2022/12/08 00:29:18;;;;;;;12.52;8.52;;;5.20;74.50;;;;;;2373072;56;21547;-50
2022/12/08 00:31:45;;;;;;;14.90;10.02;;;5.10;74.60;;;;;;2373988;56;21098;-48
2022/12/08 00:34:13;;;;;;;15.48;9.98;;;5.10;74.60;;;;;;2373778;56;21642;-49
2022/12/08 00:36:41;;;;;;;16.65;10.57;;;5.10;74.60;;;;;;2373712;56;21570;-48
2022/12/08 00:39:08;;;;;;;16.08;9.70;;;5.10;74.40;;;;;;2373824;56;22137;-50
2022/12/08 00:44:21;;;;;;;19.42;11.93;;;5.10;74.40;;;;;;2373470;56;21575;-52
2022/12/08 00:46:48;;;;;;;20.73;12.30;;;5.10;74.20;;;;;;2373822;56;21562;-50
2022/12/08 00:49:16;;;;;;;24.05;13.85;;;5.10;74.20;;;;;;2373926;56;21622;-52
2022/12/08 00:51:44;;;;;;;25.77;14.20;;;5.10;74.40;;;;;;2373739;56;21031;-51
2022/12/08 00:54:12;;;;;;;23.58;13.90;;;5.10;74.50;;;;;;2373829;56;21134;-53
2022/12/08 00:56:39;;;;;;;23.73;13.50;;;5.10;74.60;;;;;;2373800;56;21531;-49
2022/12/08 00:59:07;;;;;;;23.20;13.75;;;5.00;74.70;;;;;;2373970;56;21055;-51
2022/12/08 01:01:34;;;;;;;23.83;13.20;;;5.10;74.80;;;;;;2373880;56;21547;-54
2022/12/08 01:04:04;;;;;;;24.55;14.73;;;5.00;74.80;;;;;;2373781;56;21121;-51
2022/12/08 01:06:31;;;;;;;24.08;14.82;;;5.10;74.90;;;;;;2374163;56;21602;-50
2022/12/08 01:08:58;;;;;;;28.70;16.25;;;5.00;74.80;;;;;;2374516;56;21570;-51
2022/12/08 01:11:25;;;;;;;26.48;14.23;;;5.00;74.90;;;;;;2374222;56;21027;-48
2022/12/08 01:13:54;;;;;;;30.35;16.67;;;5.00;74.90;;;;;;2374278;56;21146;-50
2022/12/08 01:16:23;;;;;;;26.70;14.87;;;5.00;74.90;;;;;;2373765;56;21043;-51
2022/12/08 01:18:51;;;;;;;27.45;15.23;;;5.00;75.10;;;;;;2373902;56;21189;-51
2022/12/08 01:21:19;;;;;;;25.70;14.85;;;5.10;75.00;;;;;;2374031;56;22122;-50
2022/12/08 01:23:46;;;;;;;27.48;15.23;;;5.00;75.10;;;;;;2373837;56;21519;-47
2022/12/08 01:26:15;;;;;;;29.58;16.20;;;5.00;75.20;;;;;;2373820;56;21105;-50
2022/12/08 01:28:43;;;;;;;26.35;15.10;;;5.00;75.10;;;;;;2373777;56;22122;-48
2022/12/08 01:31:13;;;;;;;32.03;16.15;;;5.00;75.20;;;;;;2373907;56;21641;-49
2022/12/08 01:33:40;;;;;;;30.62;15.88;;;5.00;75.40;;;;;;2373825;56;21046;-48
2022/12/08 01:36:17;;;;;;;28.17;16.17;;;5.00;75.40;;;;;;2375020;56;21496;-50
2022/12/08 01:38:44;;;;;;;32.17;17.27;;;5.00;75.40;;;;;;2374898;56;21058;-49
2022/12/08 01:41:14;;;;;;;29.80;16.65;;;5.10;75.30;;;;;;2375054;56;21131;-49
2022/12/08 01:43:58;;;;;;;28.98;15.98;;;5.10;75.30;;;;;;2373999;56;21051;-49
2022/12/08 01:46:26;;;;;;;29.87;16.80;;;5.10;75.40;;;;;;2373965;56;21605;-52
2022/12/08 01:48:59;;;;;;;27.25;15.95;;;5.10;75.30;;;;;;2373920;56;21614;-48
2022/12/08 01:51:28;;;;;;;31.85;17.48;;;5.10;75.40;;;;;;2373890;56;21146;-51
2022/12/08 01:53:55;;;;;;;30.55;17.30;;;5.10;75.40;;;;;;2373684;56;21612;-54
2022/12/08 01:56:39;;;;;;;26.42;14.93;;;5.10;75.60;;;;;;2374164;56;21051;-50
2022/12/08 01:59:07;;;;;;;25.80;15.07;;;5.10;75.70;;;;;;2374625;56;21542;-52
2022/12/08 02:01:34;;;;;;;31.85;17.35;;;5.10;75.70;;;;;;2374479;56;21071;-49
2022/12/08 02:04:03;;;;;;;28.35;17.20;;;5.10;75.70;;;;;;2373878;56;21440;-52
2022/12/08 02:06:36;;;;;;;28.60;17.33;;;5.10;75.70;;;;;;2373574;56;21551;-48
2022/12/08 02:09:04;;;;;;;27.02;15.90;;;5.10;75.60;;;;;;2373891;56;21511;-47
2022/12/08 02:11:31;;;;;;;28.08;15.63;;;5.20;75.80;;;;;;2373556;56;21539;-51
2022/12/08 02:14:01;;;;;;;27.70;16.00;;;5.10;75.80;;;;;;2373776;56;21090;-47
2022/12/08 02:16:39;;;;;;;22.87;13.90;;;5.20;75.90;;;;;;2373865;56;22059;-48
2022/12/08 02:19:25;;;;;;;26.77;15.75;;;5.20;75.90;;;;;;2375121;56;21018;-51
2022/12/08 02:21:57;;;;;;;23.52;12.60;;;5.20;75.80;;;;;;2374684;56;21070;-49
2022/12/08 02:24:35;;;;;;;25.65;14.75;;;5.20;75.80;;;;;;2375064;56;21027;-49
2022/12/08 02:27:23;;;;;;;21.45;13.05;;;5.20;76.00;;;;;;2374900;56;21078;-49
2022/12/08 02:30:14;;;;;;;27.50;15.82;;;5.20;76.00;;;;;;2374704;56;21022;-48
2022/12/08 02:33:27;;;;;;;30.30;17.27;;;5.20;75.90;;;;;;2374575;56;21136;-48
2022/12/08 02:36:42;;;;;;;26.90;15.65;;;5.20;75.80;;;;;;2373902;56;21603;-49
2022/12/08 02:39:21;;;;;;;26.37;15.48;;;5.20;75.40;;;;;;2372583;56;21099;-56
2022/12/08 02:41:58;;;;;;;31.25;15.45;;;5.20;75.30;;;;;;2373765;56;21098;-51
2022/12/08 02:44:32;;;;;;;25.35;15.27;;;5.10;75.40;;;;;;2373368;56;22060;-51
2022/12/08 02:47:03;;;;;;;26.58;15.63;;;5.10;75.50;;;;;;2374268;56;21586;-51
2022/12/08 02:49:31;;;;;;;24.90;13.62;;;5.20;75.50;;;;;;2374295;56;21614;-54
2022/12/08 02:52:06;;;;;;;22.25;14.20;;;5.10;75.60;;;;;;2374666;56;21554;-51
2022/12/08 02:54:35;;;;;;;22.52;14.30;;;5.10;75.60;;;;;;2374054;56;21042;-49
2022/12/08 02:57:20;;;;;;;22.05;13.13;;;5.10;75.50;;;;;;2374056;56;21518;-52
2022/12/08 03:00:02;;;;;;;21.30;12.90;;;5.20;75.60;;;;;;2373695;56;21039;-54
2022/12/08 03:02:40;;;;;;;20.12;13.05;;;5.20;75.40;;;;;;2373851;56;21654;-49
2022/12/08 03:05:18;;;;;;;18.23;11.25;;;5.20;75.30;;;;;;2373852;56;21082;-50
2022/12/08 03:07:53;;;;;;;18.65;11.20;;;5.10;75.20;;;;;;2372726;56;21637;-52
2022/12/08 03:10:26;;;;;;;17.20;11.73;;;5.10;75.40;;;;;;2373358;56;21623;-56
2022/12/08 03:12:58;;;;;;;13.13;8.13;;;5.10;75.50;;;;;;2374821;56;21011;-51
2022/12/08 03:15:25;;;;;;;14.45;10.38;;;5.10;75.70;;;;;;2374931;56;21023;-49
2022/12/08 03:17:56;;;;;;;14.93;10.27;;;5.10;75.60;;;;;;2375009;56;21027;-47
2022/12/08 03:20:26;;;;;;;12.93;9.13;;;5.10;75.90;;;;;;2375101;56;21480;-49
2022/12/08 03:22:57;;;;;;;14.52;9.60;;;5.10;75.90;;;;;;2374036;56;21170;-49
2022/12/08 03:25:27;;;;;;;17.48;9.73;;;5.10;75.70;;;;;;2373780;56;21055;-54
2022/12/08 03:27:54;;;;;;;13.10;8.70;;;5.10;75.80;;;;;;2373356;56;21575;-50
2022/12/08 03:30:21;;;;;;;15.02;9.45;;;5.10;75.80;;;;;;2373446;56;21054;-51
2022/12/08 03:32:53;;;;;;;13.05;8.93;;;5.10;75.90;;;;;;2373863;56;21113;-47
2022/12/08 03:35:25;;;;;;;13.65;8.98;;;5.10;76.00;;;;;;2373884;56;21638;-48
2022/12/08 03:38:00;;;;;;;15.70;9.57;;;5.10;75.80;;;;;;2374593;56;21046;-50
2022/12/08 03:40:27;;;;;;;13.13;9.15;;;5.10;75.70;;;;;;2374339;56;21514;-53
2022/12/08 03:42:54;;;;;;;14.52;9.80;;;5.10;75.70;;;;;;2374631;56;21036;-49
2022/12/08 03:45:21;;;;;;;15.75;9.90;;;5.20;75.90;;;;;;2373593;56;21531;-51
2022/12/08 03:47:49;;;;;;;16.12;9.70;;;5.10;75.90;;;;;;2373894;56;21604;-48
2022/12/08 03:50:16;;;;;;;16.15;8.95;;;5.10;76.10;;;;;;2373709;56;21051;-49
2022/12/08 03:52:43;;;;;;;16.55;9.63;;;5.10;75.90;;;;;;2373841;56;21586;-49
2022/12/08 03:55:10;;;;;;;13.57;8.63;;;5.10;75.90;;;;;;2373149;56;21051;-52
2022/12/08 03:57:38;;;;;;;13.85;8.23;;;5.10;76.10;;;;;;2373617;56;21523;-48
2022/12/08 04:00:11;;;;;;;13.80;9.40;;;5.10;76.10;;;;;;2373902;56;21094;-53
2022/12/08 04:02:38;;;;;;;14.32;8.07;;;5.10;76.20;;;;;;2375174;56;21019;-52
2022/12/08 04:05:06;;;;;;;12.13;8.05;;;5.20;76.30;;;;;;2374860;56;21492;-51
2022/12/08 04:07:33;;;;;;;11.75;7.45;;;5.10;76.40;;;;;;2374080;56;21047;-54
2022/12/08 04:10:01;;;;;;;15.45;7.30;;;5.10;76.50;;;;;;2373705;56;22117;-49
2022/12/08 04:12:28;;;;;;;9.70;6.93;;;5.10;76.60;;;;;;2373848;56;21054;-51
2022/12/08 04:14:55;;;;;;;11.25;8.00;;;5.20;76.60;;;;;;2373875;56;21036;-48
2022/12/08 04:17:22;;;;;;;8.77;6.80;;;5.20;76.90;;;;;;2373896;56;21609;-49
2022/12/08 04:19:49;;;;;;;11.88;6.85;;;5.20;77.00;;;;;;2374160;56;21091;-48
2022/12/08 04:22:16;;;;;;;8.43;5.78;;;5.20;77.00;;;;;;2374194;56;21611;-49
2022/12/08 04:24:43;;;;;;;8.68;5.37;;;5.20;77.00;;;;;;2374505;56;21051;-51
2022/12/08 04:27:10;;;;;;;8.75;5.12;;;5.20;76.80;;;;;;2374262;56;21440;-53
2022/12/08 04:29:37;;;;;;;5.72;4.95;;;5.20;76.80;;;;;;2373967;56;21044;-50
2022/12/08 04:32:05;;;;;;;7.57;4.75;;;5.20;76.70;;;;;;2373777;56;21559;-48
2022/12/08 04:34:32;;;;;;;8.57;4.43;;;5.20;76.90;;;;;;2373554;56;21038;-50
2022/12/08 04:37:00;;;;;;;5.55;4.35;;;5.20;76.90;;;;;;2373767;56;22143;-47
2022/12/08 04:39:27;;;;;;;5.50;4.10;;;5.30;77.70;;;;;;2373757;56;21539;-48
2022/12/08 04:41:54;;;;;;;7.05;5.22;;;5.30;76.90;;;;;;2373985;56;21066;-54
2022/12/08 04:44:21;;;;;;;5.62;4.10;;;5.30;76.60;;;;;;2373645;56;21657;-55
2022/12/08 04:46:48;;;;;;;5.68;4.37;;;5.30;76.70;;;;;;2373879;56;21114;-54
2022/12/08 04:49:15;;;;;;;5.43;4.12;;;5.30;76.80;;;;;;2373554;56;21075;-50
2022/12/08 04:51:42;;;;;;;4.85;4.03;;;5.30;77.00;;;;;;2373802;56;21055;-51
2022/12/08 04:54:10;;;;;;;5.12;3.87;;;5.20;77.10;;;;;;2373715;56;21118;-50
2022/12/08 04:56:37;;;;;;;5.47;4.12;;;5.30;77.30;;;;;;2373864;56;21047;-49
2022/12/08 04:59:04;;;;;;;5.53;3.83;;;5.30;77.20;;;;;;2373857;56;21118;-50
2022/12/08 05:01:31;;;;;;;4.85;4.20;;;5.30;76.90;;;;;;2373872;56;21046;-49
2022/12/08 05:03:58;;;;;;;4.43;4.03;;;5.30;76.80;;;;;;2373431;56;21421;-53
2022/12/08 05:06:25;;;;;;;6.07;4.22;;;5.30;76.80;;;;;;2373840;56;21118;-49
2022/12/08 05:08:53;;;;;;;6.28;4.12;;;5.30;76.80;;;;;;2373872;56;21054;-52
2022/12/08 05:11:20;;;;;;;5.30;4.25;;;5.30;76.90;;;;;;2373966;56;21122;-50
2022/12/08 05:13:47;;;;;;;4.68;4.00;;;5.30;77.00;;;;;;2374490;56;21650;-52
2022/12/08 05:16:15;;;;;;;4.75;4.00;;;5.30;77.10;;;;;;2374197;56;21387;-46
2022/12/08 05:18:43;;;;;;;6.32;4.10;;;5.30;76.90;;;;;;2374109;56;21051;-47
2022/12/08 05:21:11;;;;;;;6.43;4.20;;;5.30;77.00;;;;;;2373760;56;21705;-46
2022/12/08 05:23:38;;;;;;;5.93;4.20;;;5.30;77.80;;;;;;2373921;56;21067;-51
2022/12/08 05:26:06;;;;;;;6.43;4.47;;;5.30;76.90;;;;;;2373953;56;21058;-51
2022/12/08 05:28:33;;;;;;;5.72;4.72;;;5.30;76.80;;;;;;2373869;56;21110;-52
2022/12/08 05:31:00;;;;;;;5.78;4.20;;;5.30;76.80;;;;;;2373558;56;21107;-48
2022/12/08 05:33:28;;;;;;;6.47;4.35;;;5.40;77.10;;;;;;2373612;56;21051;-52
2022/12/08 05:35:55;;;;;;;6.12;5.00;;;5.40;77.10;;;;;;2373977;56;21110;-48
2022/12/08 05:38:22;;;;;;;7.72;4.60;;;5.40;77.00;;;;;;2374062;56;21039;-51
2022/12/08 05:40:49;;;;;;;5.05;4.25;;;5.40;76.90;;;;;;2373756;56;22132;-50
2022/12/08 05:43:16;;;;;;;5.62;5.03;;;5.40;76.80;;;;;;2373731;56;21102;-48
2022/12/08 05:45:43;;;;;;;5.65;4.80;;;5.40;76.80;;;;;;2373780;56;21051;-53
2022/12/08 05:48:10;;;;;;;5.95;5.00;;;5.40;76.70;;;;;;2373995;56;21103;-49
2022/12/08 05:50:39;;;;;;;6.40;5.45;;;5.40;76.60;;;;;;2373811;56;21059;-53
2022/12/08 05:53:06;;;;;;;6.07;4.68;;;5.40;76.70;;;;;;2374157;56;21122;-53
2022/12/08 05:55:33;;;;;;;5.70;4.87;;;5.40;77.60;;;;;;2373845;56;21051;-48
2022/12/08 05:58:00;;;;;;;4.87;4.37;;;5.40;76.80;;;;;;2373691;56;21031;-51
2022/12/08 06:00:27;;;;;;;6.50;4.68;;;5.40;76.80;;;;;;2373731;56;21106;-48
2022/12/08 06:02:54;;;;;;;5.43;4.28;;;5.50;76.90;;;;;;2374031;56;21046;-49
2022/12/08 06:05:21;;;;;;;6.07;4.30;;;5.50;76.80;;;;;;2374358;56;21428;-54
2022/12/08 06:07:49;;;;;;;6.00;4.47;;;5.50;76.70;;;;;;2374623;56;21114;-49
2022/12/08 06:10:16;;;;;;;7.53;4.50;;;5.50;76.70;;;;;;2374172;56;21086;-52
2022/12/08 06:12:43;;;;;;;6.37;4.93;;;5.50;76.60;;;;;;2373612;56;22235;-51
2022/12/08 06:15:11;;;;;;;5.87;4.57;;;5.50;76.60;;;;;;2373514;56;21047;-52
2022/12/08 06:17:38;;;;;;;5.90;4.68;;;5.50;76.50;;;;;;2373775;56;21070;-52
2022/12/08 06:20:08;;;;;;;6.15;4.95;;;5.50;76.40;;;;;;2373783;56;21055;-50
2022/12/08 06:22:35;;;;;;;5.70;4.65;;;5.50;76.60;;;;;;2373860;56;21051;-54
2022/12/08 06:25:03;;;;;;;6.18;4.93;;;5.50;76.60;;;;;;2373615;56;21637;-52
2022/12/08 06:27:30;;;;;;;6.35;4.93;;;5.50;76.70;;;;;;2374951;56;21030;-55
2022/12/08 06:29:57;;;;;;;5.70;4.60;;;5.50;76.70;;;;;;2374974;56;21054;-49
2022/12/08 06:32:25;;;;;;;6.40;4.47;;;5.50;76.40;;;;;;2374812;56;21170;-50
2022/12/08 06:34:52;;;;;;;6.62;5.18;;;5.50;76.20;;;;;;2375061;56;21095;-52
2022/12/08 06:37:19;;;;;;;5.28;4.30;;;5.50;76.20;;;;;;2374962;56;21027;-49
2022/12/08 06:39:47;;;;;;;6.12;4.55;;;5.50;76.40;;;;;;2374160;56;21046;-51
2022/12/08 06:45:00;;;;;;;6.43;5.20;;;5.50;76.50;;;;;;2373488;56;20991;-49
2022/12/08 06:47:27;;;;;;;6.00;4.70;;;5.50;76.50;;;;;;2373770;56;21063;-54
2022/12/08 06:49:54;;;;;;;6.00;4.57;;;5.50;76.50;;;;;;2373783;56;21039;-55
2022/12/08 06:52:21;;;;;;;5.78;4.87;;;5.50;76.70;;;;;;2373765;56;21051;-50
2022/12/08 06:54:48;;;;;;;7.35;5.47;;;5.50;76.60;;;;;;2374443;56;21039;-47
2022/12/08 06:57:17;;;;;;;7.32;5.40;;;5.50;76.70;;;;;;2374552;56;21062;-50
2022/12/08 06:59:44;;;;;;;9.40;5.37;;;5.50;76.70;;;;;;2374462;56;21536;-49
2022/12/08 07:02:11;;;;;;;6.37;4.80;;;5.60;76.70;;;;;;2373628;56;21050;-49
2022/12/08 07:04:39;;;;;;;5.53;4.50;;;5.60;76.60;;;;;;2373423;56;21297;-50
2022/12/08 07:07:06;;;;;;;6.87;4.60;;;5.60;76.70;;;;;;2373771;56;21054;-50
2022/12/08 07:09:33;;;;;;;7.47;4.95;;;5.60;76.80;;;;;;2373830;56;21109;-52
2022/12/08 07:12:00;;;;;;;6.45;4.75;;;5.60;76.80;;;;;;2373852;56;21631;-47
2022/12/08 07:14:28;;;;;;;7.78;5.75;;;5.60;76.50;;;;;;2374023;56;21075;-50
2022/12/08 07:16:55;;;;;;;5.62;4.43;;;5.60;76.50;;;;;;2374036;56;21115;-53
2022/12/08 07:19:22;;;;;;;7.60;5.28;;;5.60;76.50;;;;;;2373537;56;21055;-50
2022/12/08 07:21:49;;;;;;;6.75;5.43;;;5.60;76.50;;;;;;2373772;56;21081;-49
2022/12/08 07:24:17;;;;;;;8.15;5.18;;;5.60;76.40;;;;;;2373874;56;21126;-49
2022/12/08 07:26:44;;;;;;;6.50;4.57;;;5.60;76.50;;;;;;2373931;56;21118;-50
2022/12/08 07:29:11;;;;;;;6.35;4.30;;;5.60;76.10;;;;;;2373845;56;21035;-50
2022/12/08 07:31:39;;;;;;;6.18;4.78;;;5.60;76.20;;;;;;2373518;56;21162;-47
2022/12/08 07:34:06;;;;;;;4.85;4.12;;;5.60;75.90;;;;;;2374003;56;21051;-51
2022/12/08 07:36:33;;;;;;;6.20;4.90;;;5.60;76.10;;;;;;2374026;56;21058;-50
2022/12/08 07:39:00;;;;;;;6.82;5.20;;;5.60;76.10;;;;;;2373301;56;21098;-50
2022/12/08 07:41:27;;;;;;;8.95;5.55;;;5.60;76.30;;;;;;2373588;56;21044;-51
2022/12/08 07:43:56;;;;;;;6.87;5.55;;;5.60;76.30;;;;;;2374285;56;21114;-50
2022/12/08 07:46:25;;;;;;;7.80;6.00;;;5.60;76.30;;;;;;2374523;56;21051;-51
2022/12/08 07:48:53;;;;;;;6.95;5.20;;;5.60;76.30;;;;;;2374591;56;21584;-54
2022/12/08 07:51:20;;;;;;;8.45;6.12;;;5.60;76.40;;;;;;2374289;56;21169;-51
2022/12/08 07:53:49;;;;;;;8.13;6.15;;;5.70;76.50;;;;;;2373599;56;21579;-47
2022/12/08 07:56:17;;;;;;;9.07;6.72;;;5.60;76.50;;;;;;2374053;56;21606;-53
2022/12/08 07:58:45;;;;;;;10.02;6.35;;;5.60;76.60;;;;;;2373739;56;21090;-52
2022/12/08 08:01:21;;;;;;;9.85;6.57;;;5.60;76.70;;;;;;2373860;56;21173;-49
2022/12/08 08:03:48;;;;;;;10.00;7.32;;;5.60;76.80;;;;;;2373787;56;21075;-52
2022/12/08 08:06:16;;;;;;;10.68;7.78;;;5.70;76.90;;;;;;2373790;56;21618;-48
2022/12/08 08:08:43;;;;;;;12.25;8.30;;;5.70;76.80;;;;;;2373870;56;21108;-48
2022/12/08 08:11:10;;;;;;;9.75;6.70;;;5.70;76.80;;;;;;2373818;56;21063;-52
2022/12/08 08:13:37;;;;;;;12.60;8.65;;;5.70;76.80;;;;;;2373847;56;21055;-47
2022/12/08 08:16:06;;;;;;;14.55;8.75;;;5.70;76.90;;;;;;2373919;56;21047;-54
2022/12/08 08:18:34;;;;;;;13.65;9.38;;;5.70;76.90;;;;;;2373824;56;21744;-47
2022/12/08 08:21:02;;;;;;;12.30;7.87;;;5.80;76.80;;;;;;2373610;56;22078;-48
2022/12/08 08:23:30;;;;;;;12.93;8.27;;;5.70;76.70;;;;;;2373855;56;21712;-53
2022/12/08 08:26:00;;;;;;;11.23;8.25;;;5.70;76.50;;;;;;2374210;56;21488;-49
2022/12/08 08:28:28;;;;;;;12.85;8.35;;;5.80;76.40;;;;;;2373422;56;21614;-47
2022/12/08 08:30:56;;;;;;;13.07;8.68;;;5.80;76.50;;;;;;2373874;56;21619;-49
2022/12/08 08:33:23;;;;;;;11.80;7.87;;;5.70;76.20;;;;;;2374351;56;21570;-49
2022/12/08 08:35:50;;;;;;;13.40;8.95;;;5.70;76.30;;;;;;2374552;56;22190;-48
2022/12/08 08:38:17;;;;;;;11.80;7.30;;;5.70;76.20;;;;;;2374615;56;21063;-47
2022/12/08 08:40:44;;;;;;;12.27;7.93;;;5.70;76.30;;;;;;2373900;56;21051;-53
2022/12/08 08:43:27;;;;;;;15.38;9.70;;;5.70;76.30;;;;;;2373335;56;21126;-49
2022/12/08 08:45:56;;;;;;;19.55;12.15;;;5.70;76.30;;;;;;2374031;56;21046;-47
2022/12/08 08:48:23;;;;;;;20.60;12.77;;;5.70;76.10;;;;;;2373824;56;21059;-52
2022/12/08 08:50:50;;;;;;;19.55;11.95;;;5.70;76.00;;;;;;2373658;56;21023;-47
2022/12/08 08:53:18;;;;;;;22.48;12.05;;;5.70;76.00;;;;;;2373943;56;21039;-51
2022/12/08 08:55:45;;;;;;;22.77;13.55;;;5.70;76.00;;;;;;2373427;56;21598;-52
2022/12/08 08:58:13;;;;;;;21.33;11.70;;;5.70;76.00;;;;;;2373820;56;21603;-49
2022/12/08 09:00:40;;;;;;;23.75;14.35;;;5.70;75.90;;;;;;2374957;56;21598;-51
2022/12/08 09:03:07;;;;;;;25.12;14.93;;;5.70;75.90;;;;;;2374366;56;21026;-53
2022/12/08 09:05:36;;;;;;;27.00;15.77;;;5.70;75.90;;;;;;2374497;56;21027;-51
2022/12/08 09:08:04;;;;;;;24.15;14.45;;;5.70;75.90;;;;;;2373908;56;21566;-55
2022/12/08 09:10:31;;;;;;;27.00;15.82;;;5.70;75.90;;;;;;2372868;56;21151;-52
2022/12/08 09:12:58;;;;;;;22.13;14.52;;;5.80;76.00;;;;;;2373279;56;21566;-46
2022/12/08 09:15:25;;;;;;;29.33;16.65;;;5.80;76.00;;;;;;2373115;56;21075;-49
2022/12/08 09:17:52;;;;;;;22.55;12.68;;;5.80;75.90;;;;;;2373378;56;21058;-49
2022/12/08 09:20:19;;;;;;;27.55;15.13;;;5.80;76.10;;;;;;2373371;56;21059;-50
2022/12/08 09:22:46;;;;;;;28.52;16.48;;;5.80;75.90;;;;;;2373600;56;21162;-51
2022/12/08 09:25:13;;;;;;;27.20;15.45;;;5.80;75.70;;;;;;2373789;56;21543;-53
2022/12/08 09:27:41;;;;;;;27.50;16.10;;;5.70;75.60;;;;;;2373855;56;21118;-48
2022/12/08 09:30:09;;;;;;;28.33;16.48;;;5.70;75.30;;;;;;2373694;56;21047;-54
2022/12/08 09:32:36;;;;;;;32.17;15.75;;;5.70;75.30;;;;;;2373441;56;21039;-48
2022/12/08 09:35:04;;;;;;;24.85;15.13;;;5.70;75.20;;;;;;2373307;56;21050;-52
2022/12/08 09:37:32;;;;;;;27.33;15.30;;;5.70;75.00;;;;;;2373514;56;21038;-51
2022/12/08 09:39:59;;;;;;;24.35;13.93;;;5.80;75.00;;;;;;2373537;56;21043;-50
2022/12/08 09:42:37;;;;;;;27.37;15.10;;;5.70;74.80;;;;;;2373091;56;21111;-52
2022/12/08 09:45:10;;;;;;;18.75;11.02;;;5.70;74.90;;;;;;2373454;56;21047;-51
2022/12/08 09:47:40;;;;;;;16.65;9.70;;;5.70;74.90;;;;;;2374460;56;21097;-48
2022/12/08 09:50:15;;;;;;;17.58;10.05;;;5.70;75.00;;;;;;2374771;56;21634;-50
2022/12/08 09:52:45;;;;;;;18.75;11.27;;;5.70;75.20;;;;;;2374509;56;21098;-49
2022/12/08 09:55:20;;;;;;;18.98;12.00;;;5.70;75.30;;;;;;2374532;56;21511;-51
2022/12/08 09:57:52;;;;;;;21.52;12.65;;;5.70;75.30;;;;;;2374582;56;21027;-49
2022/12/08 10:00:21;;;;;;;21.50;13.18;;;5.70;75.00;;;;;;2374923;56;21015;-47
2022/12/08 10:02:48;;;;;;;24.52;14.38;;;5.70;74.90;;;;;;2373655;56;21031;-53
2022/12/08 10:05:16;;;;;;;21.73;12.10;;;5.70;74.80;;;;;;2373400;56;21213;-46
2022/12/08 10:07:47;;;;;;;20.12;12.90;;;5.70;74.80;;;;;;2373375;56;21566;-47
2022/12/08 10:10:25;;;;;;;21.80;11.68;;;5.70;75.00;;;;;;2373699;56;21063;-54
2022/12/08 10:12:59;;;;;;;22.08;12.88;;;5.70;75.10;;;;;;2373498;56;22092;-56
2022/12/08 10:15:40;;;;;;;20.92;12.35;;;5.70;75.10;;;;;;2373605;56;21042;-52
2022/12/08 10:18:13;;;;;;;20.55;12.30;;;5.70;75.10;;;;;;2374316;56;21122;-50
2022/12/08 10:20:43;;;;;;;20.35;12.27;;;5.70;74.90;;;;;;2373831;56;21539;-52
2022/12/08 10:23:20;;;;;;;18.33;11.65;;;5.80;75.00;;;;;;2373944;56;21149;-46
2022/12/08 10:25:49;;;;;;;19.15;11.68;;;5.70;74.90;;;;;;2373381;56;21534;-49
2022/12/08 10:28:16;;;;;;;19.02;10.75;;;5.80;75.20;;;;;;2373525;56;21621;-49
2022/12/08 10:30:43;;;;;;;13.60;8.60;;;5.80;75.90;;;;;;2373383;56;21058;-51
2022/12/08 10:33:15;;;;;;;13.85;9.02;;;5.90;75.30;;;;;;2373497;56;21042;-47
2022/12/08 10:35:48;;;;;;;16.00;10.00;;;5.80;75.40;;;;;;2373103;56;21078;-48
2022/12/08 10:38:26;;;;;;;14.75;9.45;;;5.90;75.40;;;;;;2373380;56;21512;-47
2022/12/08 10:41:02;;;;;;;15.00;8.75;;;5.90;75.20;;;;;;2374371;56;21099;-49
2022/12/08 10:43:29;;;;;;;12.43;7.90;;;5.90;75.10;;;;;;2374587;56;20999;-50
2022/12/08 10:46:08;;;;;;;10.38;6.93;;;5.90;74.90;;;;;;2374583;56;21405;-47
2022/12/08 10:48:35;;;;;;;10.93;7.43;;;5.90;74.90;;;;;;2374979;56;21067;-48
2022/12/08 10:51:04;;;;;;;10.93;7.05;;;5.90;74.80;;;;;;2374047;56;21046;-49
2022/12/08 10:53:32;;;;;;;13.18;6.95;;;5.90;74.70;;;;;;2373431;56;21110;-51
2022/12/08 10:56:13;;;;;;;10.63;7.20;;;6.00;74.70;;;;;;2373288;56;21559;-49
2022/12/08 10:58:42;;;;;;;9.23;6.30;;;6.00;74.40;;;;;;2373699;56;21047;-46
2022/12/08 11:01:13;;;;;;;9.43;6.40;;;6.00;74.40;;;;;;2373303;56;21055;-53
2022/12/08 11:03:46;;;;;;;10.43;6.47;;;6.00;74.40;;;;;;2373670;56;21641;-46
2022/12/08 11:06:18;;;;;;;11.00;7.03;;;6.00;74.50;;;;;;2374044;56;21523;-49
2022/12/08 11:08:52;;;;;;;10.20;6.72;;;6.00;74.50;;;;;;2374530;56;21594;-47
2022/12/08 11:11:21;;;;;;;8.68;6.12;;;6.00;74.50;;;;;;2373906;56;21574;-47
2022/12/08 11:13:50;;;;;;;9.82;6.60;;;6.00;74.60;;;;;;2373660;56;21523;-54
2022/12/08 11:16:19;;;;;;;8.35;6.07;;;6.00;74.70;;;;;;2373571;56;21039;-55
2022/12/08 11:18:54;;;;;;;10.40;6.37;;;6.00;74.60;;;;;;2373753;56;21075;-51
2022/12/08 11:21:35;;;;;;;7.12;5.22;;;6.00;74.20;;;;;;2373505;56;21673;-51
2022/12/08 11:24:19;;;;;;;7.43;5.25;;;6.00;74.10;;;;;;2373323;56;21083;-50
2022/12/08 11:26:51;;;;;;;6.32;4.43;;;6.10;74.20;;;;;;2373643;56;21070;-51
2022/12/08 11:29:18;;;;;;;7.97;5.60;;;6.00;74.10;;;;;;2373740;56;21051;-51
2022/12/08 11:31:52;;;;;;;8.10;5.62;;;6.00;74.30;;;;;;2373321;56;21629;-50
2022/12/08 11:34:21;;;;;;;;;;;6.00;74.20;;;;;;2377992;56;21031;-48
2022/12/08 11:36:51;;;;;;;7.30;4.85;;;6.10;74.10;;;;;;2374719;56;20033;-47
2022/12/08 11:39:19;;;;;;;8.90;5.68;;;6.10;73.60;;;;;;2374683;56;21098;-47
2022/12/08 11:41:47;;;;;;;7.37;5.32;;;6.10;73.80;;;;;;2374604;56;21574;-53
2022/12/08 11:44:28;;;;;;;7.00;5.18;;;6.00;73.90;;;;;;2373587;56;21129;-47
2022/12/08 11:46:58;;;;;;;7.55;5.53;;;6.00;73.90;;;;;;2373369;56;21174;-47
2022/12/08 11:49:34;;;;;;;8.52;5.97;;;6.10;73.90;;;;;;2373423;56;21642;-47
2022/12/08 11:52:10;;;;;;;9.88;6.00;;;6.10;73.80;;;;;;2373571;56;21622;-45
2022/12/08 11:54:44;;;;;;;8.57;6.05;;;6.00;73.50;;;;;;2373987;56;21090;-46
2022/12/08 11:57:15;;;;;;;8.90;5.85;;;6.00;73.30;;;;;;2373942;56;21531;-45
2022/12/08 11:59:45;;;;;;;9.35;5.70;;;6.00;73.40;;;;;;2373999;56;21162;-54
2022/12/08 12:02:16;;;;;;;9.63;5.97;;;6.00;73.50;;;;;;2373421;56;21126;-51
2022/12/08 12:04:48;;;;;;;8.45;6.20;;;6.00;73.20;;;;;;2373722;56;21554;-49
2022/12/08 12:07:50;;;;;;;8.35;5.45;;;5.90;73.30;;;;;;2373874;56;21122;-50
2022/12/08 12:10:34;;;;;;;9.60;6.25;;;5.90;73.50;;;;;;2373385;56;21102;-50
2022/12/08 12:13:16;;;;;;;11.00;7.00;;;5.90;73.50;;;;;;2373336;56;21638;-53
2022/12/08 12:16:30;;;;;;;12.65;8.45;;;5.90;73.70;;;;;;2373464;56;21527;-51
2022/12/08 12:18:59;;;;;;;10.77;6.70;;;5.90;73.90;;;;;;2370355;56;21552;-52
2022/12/08 12:21:32;;;;;;;10.45;7.32;;;5.90;74.00;;;;;;2374694;56;21110;-51
2022/12/08 12:24:03;;;;;;;11.20;7.32;;;5.90;74.80;;;;;;2374750;56;21014;-48
2022/12/08 12:26:35;;;;;;;13.62;7.65;;;5.90;73.90;;;;;;2374567;56;21070;-48
2022/12/08 12:29:06;;;;;;;11.68;7.62;;;5.90;73.80;;;;;;2374758;56;21011;-47
2022/12/08 12:31:37;;;;;;;10.85;7.40;;;5.90;73.80;;;;;;2373659;56;21058;-51
2022/12/08 12:34:10;;;;;;;13.18;7.78;;;5.90;73.80;;;;;;2373157;56;21688;-50
2022/12/08 12:36:49;;;;;;;13.05;7.75;;;5.90;73.80;;;;;;2373871;56;22157;-51
2022/12/08 12:39:20;;;;;;;11.32;6.93;;;5.90;73.80;;;;;;2373526;56;21034;-50
2022/12/08 12:41:51;;;;;;;9.68;6.80;;;5.90;73.80;;;;;;2373357;56;21758;-54
2022/12/08 12:44:38;;;;;;;10.23;6.72;;;5.90;73.80;;;;;;2373675;56;21110;-48
2022/12/08 12:47:11;;;;;;;11.50;7.22;;;5.90;74.00;;;;;;2374212;56;21556;-49
2022/12/08 12:50:03;;;;;;;10.32;7.05;;;6.00;74.10;;;;;;2374620;56;21039;-48
2022/12/08 12:52:44;;;;;;;10.73;6.62;;;5.90;74.20;;;;;;2373547;56;21527;-50
2022/12/08 12:55:59;;;;;;;11.00;7.25;;;5.90;74.10;;;;;;2373556;56;21055;-51
2022/12/08 12:58:37;;;;;;;10.38;6.43;;;5.90;74.20;;;;;;2373416;56;21098;-49
2022/12/08 13:01:44;;;;;;;10.30;6.10;;;5.90;73.90;;;;;;2373362;56;21539;-51
2022/12/08 13:04:11;;;;;;;8.95;6.75;;;5.90;74.10;;;;;;2373402;56;21520;-51
2022/12/08 13:06:42;;;;;;;11.63;7.37;;;5.90;74.00;;;;;;2373513;56;21063;-49
2022/12/08 13:09:19;;;;;;;9.80;6.50;;;5.90;74.20;;;;;;2374571;56;21007;-49
2022/12/08 13:11:50;;;;;;;10.10;6.87;;;5.90;74.30;;;;;;2374368;56;21086;-52
2022/12/08 13:14:29;;;;;;;9.35;6.07;;;5.90;74.30;;;;;;2374659;56;21484;-53